Time;durP1;ratioP1;P1;durP2;ratioP2;P2;SDS_P1;SDS_P2;PMS_P1;PMS_P2;Temp;Humidity;BMP_temperature;BMP_pressure;BME280_temperature;BME280_humidity;BME280_pressure;Samples;Min_cycle;Max_cycle;Signal;HPM_P1;HPM_P2
2021/12/01 00:00:26;;;;;;;9.23;7.70;;;;;;;13.36;71.73;99904.44;4846809;29;102720;-88
2021/12/01 00:02:54;;;;;;;11.68;8.27;;;;;;;13.36;71.31;99903.66;4845391;29;102018;-88
2021/12/01 00:05:21;;;;;;;9.85;7.80;;;;;;;13.36;71.15;99904.44;4847017;29;101779;-88
2021/12/01 00:07:48;;;;;;;9.85;8.00;;;;;;;13.36;71.20;99909.91;4848367;29;102029;-88
2021/12/01 00:10:24;;;;;;;8.57;7.68;;;;;;;13.36;71.34;99920.03;4844927;29;102770;-88
2021/12/01 00:12:51;;;;;;;10.70;7.88;;;;;;;13.36;71.43;99914.56;4847820;29;101655;-88
2021/12/01 00:15:19;;;;;;;8.90;7.43;;;;;;;13.36;71.22;99909.09;4847093;29;101563;-88
2021/12/01 00:17:48;;;;;;;8.98;7.88;;;;;;;13.36;71.26;99920.03;4848149;29;102039;-88
2021/12/01 00:20:17;;;;;;;10.35;7.47;;;;;;;13.36;71.38;99920.03;4846835;29;102753;-87
2021/12/01 00:22:44;;;;;;;8.50;7.47;;;;;;;13.36;71.15;99930.97;4847254;29;101527;-87
2021/12/01 00:25:14;;;;;;;9.93;7.68;;;;;;;13.36;71.26;99920.03;4846373;29;102090;-88
2021/12/01 00:27:46;;;;;;;8.80;7.05;;;;;;;13.35;71.33;99918.44;4847707;29;101957;-88
2021/12/01 00:30:13;;;;;;;9.10;7.78;;;;;;;13.36;71.25;99928.25;4845156;29;102733;-87
2021/12/01 00:32:39;;;;;;;9.68;7.50;;;;;;;13.36;71.26;99930.97;4847222;29;101618;-87
2021/12/01 00:35:09;;;;;;;9.82;7.55;;;;;;;13.35;71.46;99932.09;4846498;29;102007;-87
2021/12/01 00:37:37;;;;;;;9.48;7.40;;;;;;;13.35;71.31;99916.50;4847569;29;102104;-88
2021/12/01 00:40:04;;;;;;;9.35;7.70;;;;;;;13.35;71.23;99912.97;4844002;29;102754;-90
2021/12/01 00:42:31;;;;;;;8.75;7.40;;;;;;;13.35;71.22;99918.44;4850773;29;102099;-91
2021/12/01 00:45:06;;;;;;;9.00;7.53;;;;;;;13.34;71.34;99914.06;4836704;29;102067;-90
2021/12/01 00:47:45;;;;;;;8.38;6.80;;;;;;;13.35;71.20;99912.97;4846027;29;102106;-86
2021/12/01 00:50:16;;;;;;;11.10;7.88;;;;;;;13.35;70.92;99902.03;4864415;29;102713;-86
2021/12/01 00:52:44;;;;;;;8.73;7.50;;;;;;;13.34;71.37;99890.31;4865797;29;101527;-86
2021/12/01 00:55:11;;;;;;;9.27;7.55;;;;;;;13.34;71.17;99897.66;4864908;29;101923;-87
2021/12/01 00:57:38;;;;;;;8.10;6.90;;;;;;;13.34;71.29;99890.31;4866822;29;102160;-86
2021/12/01 01:00:06;;;;;;;8.13;7.00;;;;;;;13.34;71.13;99873.06;4864969;29;102718;-87
2021/12/01 01:02:33;;;;;;;8.90;7.55;;;;;;;13.34;71.26;99873.06;4865227;29;102020;-92
2021/12/01 01:05:00;;;;;;;9.23;7.78;;;;;;;13.34;71.17;99870.34;4834266;29;102379;-92
2021/12/01 01:07:28;;;;;;;9.30;7.53;;;;;;;13.33;71.26;99861.34;4843476;29;102211;-92
2021/12/01 01:09:54;;;;;;;9.13;7.15;;;;;;;13.34;71.26;99856.69;4838346;29;102787;-92
2021/12/01 01:18:05;;;;;;;9.30;7.75;;;;;;;13.33;71.30;99846.88;4834543;29;102159;-92
2021/12/01 01:20:32;;;;;;;7.75;6.95;;;;;;;13.32;71.71;99842.53;4850984;29;102843;-92
2021/12/01 01:23:00;;;;;;;9.43;7.28;;;;;;;13.33;71.27;99838.66;4854273;29;102192;-92
2021/12/01 01:25:28;;;;;;;9.37;7.70;;;;;;;13.33;71.27;99833.22;4846337;29;102082;-92
2021/12/01 01:27:54;;;;;;;8.15;6.90;;;;;;;13.33;71.36;99838.66;4868023;29;102000;-88
2021/12/01 01:30:21;;;;;;;7.53;6.70;;;;;;;13.31;71.08;99836.25;4867597;29;102681;-88
2021/12/01 01:32:48;;;;;;;8.68;7.03;;;;;;;13.32;71.37;99826.94;4868362;29;101703;-88
2021/12/01 01:35:14;;;;;;;8.23;7.30;;;;;;;13.32;71.27;99826.13;4868072;29;101956;-88
2021/12/01 01:37:41;;;;;;;7.30;6.60;;;;;;;13.31;71.29;99800.75;4868916;29;102052;-88
2021/12/01 01:40:10;;;;;;;9.15;7.40;;;;;;;13.32;71.30;99807.00;4867923;29;102699;-87
2021/12/01 01:42:36;;;;;;;;;;;;;;;13.31;71.21;99808.13;4868596;29;102112;-88
2021/12/01 01:45:04;;;;;;;8.65;7.18;;;;;;;13.31;70.94;99814.41;4867898;29;101657;-87
2021/12/01 01:47:30;;;;;;;8.15;6.78;;;;;;;13.31;71.38;99819.06;4851971;29;102163;-87
2021/12/01 01:50:02;;;;;;;7.68;6.88;;;;;;;13.31;71.16;99813.59;4867757;29;102677;-87
2021/12/01 01:52:29;;;;;;;8.70;7.45;;;;;;;13.32;71.16;99815.22;4866880;29;101764;-87
2021/12/01 01:54:56;;;;;;;7.68;6.88;;;;;;;13.31;71.36;99819.88;4867160;29;101931;-88
2021/12/01 01:57:24;;;;;;;7.60;6.70;;;;;;;13.32;71.07;99812.47;4852186;29;102065;-87
2021/12/01 01:59:51;;;;;;;8.52;7.38;;;;;;;13.31;71.19;99806.22;4867318;29;102788;-87
2021/12/01 02:02:18;;;;;;;7.93;7.05;;;;;;;13.31;71.17;99791.75;4868265;29;101993;-87
2021/12/01 02:04:44;;;;;;;10.15;7.97;;;;;;;13.31;71.21;99797.22;4867757;29;101794;-87
2021/12/01 02:07:11;;;;;;;8.52;7.07;;;;;;;13.31;71.21;99794.47;4868693;29;102043;-87
2021/12/01 02:09:38;;;;;;;8.43;7.28;;;;;;;13.30;71.36;99796.38;4867009;29;102554;-88
2021/12/01 02:12:05;;;;;;;7.95;7.05;;;;;;;13.30;71.16;99799.09;4868009;29;101919;-88
2021/12/01 02:14:33;;;;;;;9.57;8.07;;;;;;;13.29;71.19;99783.84;4850105;29;102130;-88
2021/12/01 02:17:00;;;;;;;8.32;6.45;;;;;;;13.30;70.85;99784.63;4868699;29;101993;-88
2021/12/01 02:19:27;;;;;;;10.50;8.10;;;;;;;13.30;71.13;99785.44;4866659;29;102745;-88
2021/12/01 02:21:55;;;;;;;8.60;7.15;;;;;;;13.30;71.03;99785.44;4867557;29;101710;-87
2021/12/01 02:24:23;;;;;;;8.07;7.10;;;;;;;13.30;71.16;99782.72;4866975;29;101731;-88
2021/12/01 02:26:51;;;;;;;7.77;6.77;;;;;;;13.30;71.07;99781.91;4868492;29;102008;-88
2021/12/01 02:29:21;;;;;;;9.32;7.72;;;;;;;13.29;71.42;99778.38;4849931;29;102397;-88
2021/12/01 02:31:50;;;;;;;8.15;6.85;;;;;;;13.30;71.28;99774.50;4867603;29;101697;-87
2021/12/01 02:34:18;;;;;;;8.00;6.77;;;;;;;13.29;71.16;99775.63;4859265;29;101979;-87
2021/12/01 02:36:47;;;;;;;8.63;7.05;;;;;;;13.29;71.21;99775.63;4868093;29;102131;-87
2021/12/01 02:39:16;;;;;;;8.00;6.82;;;;;;;13.30;71.45;99770.97;4866246;29;102475;-87
2021/12/01 02:41:44;;;;;;;7.30;6.47;;;;;;;13.29;71.25;99763.91;4867546;29;101759;-86
2021/12/01 02:44:12;;;;;;;9.23;7.13;;;;;;;13.29;71.31;99766.63;4866956;29;102076;-87
2021/12/01 02:46:39;;;;;;;7.30;6.50;;;;;;;13.29;71.12;99761.19;4868230;29;102034;-87
2021/12/01 02:49:06;;;;;;;8.02;6.88;;;;;;;13.28;71.22;99762.31;4866519;29;102744;-87
2021/12/01 02:51:35;;;;;;;8.63;7.35;;;;;;;13.29;71.12;99766.63;4866916;29;101585;-87
2021/12/01 02:54:02;;;;;;;8.88;7.13;;;;;;;13.29;71.21;99763.91;4850081;29;101795;-87
2021/12/01 02:56:31;;;;;;;7.28;6.57;;;;;;;13.29;71.36;99772.09;4850908;29;102023;-87
2021/12/01 02:58:59;;;;;;;8.27;7.30;;;;;;;13.28;71.29;99775.97;4866349;29;102821;-88
2021/12/01 03:01:26;;;;;;;8.13;6.93;;;;;;;13.28;71.14;99776.78;4866884;29;101979;-87
2021/12/01 03:03:53;;;;;;;7.90;7.10;;;;;;;13.28;71.19;99771.31;4866699;29;102090;-88
2021/12/01 03:06:22;;;;;;;7.78;6.50;;;;;;;13.29;71.12;99774.84;4867742;29;101996;-88
2021/12/01 03:08:48;;;;;;;;;;;;;;;13.27;71.11;99766.13;4866931;29;102724;-88
2021/12/01 03:11:15;;;;;;;8.00;6.85;;;;;;;13.27;71.23;99772.44;4859241;29;101638;-88
2021/12/01 03:13:44;;;;;;;7.82;7.03;;;;;;;13.28;71.09;99767.78;4866760;29;101693;-88
2021/12/01 03:16:10;;;;;;;7.28;6.50;;;;;;;13.28;71.07;99765.03;4867803;29;102028;-88
2021/12/01 03:18:37;;;;;;;8.32;6.63;;;;;;;13.27;71.15;99768.88;4866694;29;102864;-88
2021/12/01 03:21:04;;;;;;;8.85;7.47;;;;;;;13.27;71.03;99764.22;4850943;29;102000;-88
2021/12/01 03:23:30;;;;;;;8.07;6.68;;;;;;;13.27;70.99;99766.13;4866423;29;101553;-88
2021/12/01 03:25:57;;;;;;;8.40;6.88;;;;;;;13.26;71.05;99761.78;4867018;29;102084;-88
2021/12/01 03:28:23;;;;;;;7.43;6.72;;;;;;;13.27;71.08;99763.41;4849273;29;102756;-88
2021/12/01 03:30:52;;;;;;;7.30;6.55;;;;;;;13.26;71.18;99757.13;4866715;29;101779;-88
2021/12/01 03:33:21;;;;;;;8.10;6.80;;;;;;;13.28;70.88;99743.19;4847880;29;101697;-88
2021/12/01 03:35:50;;;;;;;7.03;6.32;;;;;;;13.27;71.19;99747.00;4861401;29;102027;-92
2021/12/01 03:38:17;;;;;;;8.18;7.38;;;;;;;13.26;71.13;99739.94;4843559;29;102729;-92
2021/12/01 03:40:44;;;;;;;7.82;6.82;;;;;;;13.26;70.96;99750.88;4844860;29;102229;-91
2021/12/01 03:43:10;;;;;;;7.82;6.88;;;;;;;13.26;71.16;99751.66;4840967;29;103275;-91
2021/12/01 03:45:37;;;;;;;7.95;7.00;;;;;;;13.27;71.07;99757.94;4848568;29;102135;-92
2021/12/01 03:48:05;;;;;;;8.75;6.50;;;;;;;13.26;71.14;99761.78;4850451;29;102752;-92
2021/12/01 03:50:32;;;;;;;8.02;7.22;;;;;;;13.26;71.12;99767.25;4853134;29;102169;-92
2021/12/01 03:52:58;;;;;;;7.45;6.55;;;;;;;13.26;71.06;99767.25;4842571;29;102149;-92
2021/12/01 03:55:25;;;;;;;7.95;7.15;;;;;;;13.25;71.16;99760.19;4835718;29;102311;-91
2021/12/01 03:57:51;;;;;;;8.65;7.07;;;;;;;13.27;71.05;99768.88;4847920;29;104147;-92
2021/12/01 04:00:18;;;;;;;8.35;7.22;;;;;;;13.25;71.08;99771.13;4844958;29;101946;-92
2021/12/01 04:02:45;;;;;;;7.00;6.30;;;;;;;13.25;70.83;99776.59;4848093;29;101848;-92
2021/12/01 04:05:13;;;;;;;7.15;6.45;;;;;;;13.24;71.11;99764.06;4856883;29;102006;-92
2021/12/01 04:07:40;;;;;;;7.57;6.78;;;;;;;13.25;71.18;99769.19;4852472;29;102737;-91
2021/12/01 04:10:10;;;;;;;7.30;6.60;;;;;;;13.25;70.96;99754.72;4854796;29;102139;-92
2021/12/01 04:12:37;;;;;;;7.50;6.22;;;;;;;13.24;70.95;99755.84;4857941;29;102000;-92
2021/12/01 04:15:05;;;;;;;7.10;6.30;;;;;;;13.24;70.82;99759.38;4845859;29;102185;-92
2021/12/01 04:17:31;;;;;;;9.48;6.80;;;;;;;13.24;70.93;99753.13;4837868;29;102840;-92
2021/12/01 04:19:58;;;;;;;7.45;6.65;;;;;;;13.24;71.10;99753.13;4844022;29;101895;-92
2021/12/01 04:22:26;;;;;;;7.38;6.60;;;;;;;13.23;71.13;99746.78;4848146;29;102103;-92
2021/12/01 04:24:52;;;;;;;7.15;6.45;;;;;;;13.22;70.97;99756.91;4836309;29;102099;-92
2021/12/01 04:27:19;;;;;;;7.47;6.78;;;;;;;13.24;70.93;99759.38;4820106;29;104047;-91
2021/12/01 04:29:45;;;;;;;7.45;6.35;;;;;;;13.22;71.15;99754.19;4846816;29;102203;-91
2021/12/01 04:32:14;;;;;;;6.80;6.20;;;;;;;13.24;70.96;99753.13;4847939;29;102090;-91
2021/12/01 04:34:41;;;;;;;7.13;6.43;;;;;;;13.22;70.96;99748.72;4836967;29;102457;-91
2021/12/01 04:37:07;;;;;;;7.90;7.05;;;;;;;13.23;71.02;99746.78;4838098;29;102739;-91
2021/12/01 04:39:36;;;;;;;7.00;6.30;;;;;;;13.22;70.94;99751.47;4844050;29;101833;-91
2021/12/01 04:42:06;;;;;;;8.02;6.68;;;;;;;13.22;71.01;99756.13;4833759;29;102167;-91
2021/12/01 04:44:37;;;;;;;7.70;6.90;;;;;;;13.22;71.18;99759.66;4819308;29;102044;-91
2021/12/01 04:47:10;;;;;;;7.10;6.40;;;;;;;13.22;71.09;99762.38;4837201;29;102735;-91
2021/12/01 04:49:39;;;;;;;8.27;6.78;;;;;;;13.22;71.09;99765.13;4841829;29;102087;-91
2021/12/01 04:52:07;;;;;;;7.38;6.47;;;;;;;13.21;70.90;99766.25;4836817;29;102177;-91
2021/12/01 04:54:34;;;;;;;6.82;6.13;;;;;;;13.21;71.03;99760.78;4841466;29;102025;-91
2021/12/01 04:57:04;;;;;;;6.75;6.05;;;;;;;13.21;71.11;99771.72;4820908;29;102733;-91
2021/12/01 04:59:32;;;;;;;7.32;6.50;;;;;;;13.21;70.93;99771.72;4830723;29;102044;-91
2021/12/01 05:01:58;;;;;;;6.22;5.63;;;;;;;13.22;71.11;99772.50;4834292;29;102139;-91
2021/12/01 05:04:25;;;;;;;6.90;6.20;;;;;;;13.20;70.87;99764.63;4836265;29;102133;-91
2021/12/01 05:06:51;;;;;;;6.57;5.97;;;;;;;13.21;71.05;99774.44;4826926;29;102669;-91
2021/12/01 05:09:18;;;;;;;6.88;6.25;;;;;;;13.21;71.02;99771.72;4835255;29;102096;-91
2021/12/01 05:11:44;;;;;;;6.97;6.28;;;;;;;13.21;70.76;99774.44;4819540;29;102167;-90
2021/12/01 05:14:13;;;;;;;6.68;6.07;;;;;;;13.21;71.04;99779.09;4836206;29;102171;-90
2021/12/01 05:16:41;;;;;;;7.20;6.50;;;;;;;13.20;70.97;99774.75;4822806;29;102668;-90
2021/12/01 05:19:08;;;;;;;7.82;6.78;;;;;;;13.21;70.90;99768.97;4817635;29;102229;-90
2021/12/01 05:21:35;;;;;;;7.53;6.72;;;;;;;13.20;70.93;99770.09;4825733;29;102033;-90
2021/12/01 05:24:02;;;;;;;6.18;5.57;;;;;;;13.21;70.97;99768.97;4828668;29;102204;-91
2021/12/01 05:26:29;;;;;;;6.43;5.82;;;;;;;13.20;71.02;99770.09;4821024;29;102748;-91
2021/12/01 05:28:56;;;;;;;6.70;6.07;;;;;;;13.20;70.88;99758.38;4814021;29;102208;-92
2021/12/01 05:31:23;;;;;;;6.85;6.15;;;;;;;13.20;71.07;99759.19;4835366;29;102184;-91
2021/12/01 05:33:50;;;;;;;7.60;6.57;;;;;;;13.21;70.95;99759.97;4809100;29;102226;-92
2021/12/01 05:36:17;;;;;;;7.03;5.95;;;;;;;13.21;70.78;99752.59;4823795;29;107179;-91
2021/12/01 05:38:43;;;;;;;7.28;6.57;;;;;;;13.20;70.98;99759.19;4831648;29;101783;-91
2021/12/01 05:41:10;;;;;;;7.13;6.43;;;;;;;13.20;70.82;99770.09;4825720;29;102053;-90
2021/12/01 05:43:37;;;;;;;6.95;6.25;;;;;;;13.20;70.89;99775.56;4840388;29;102235;-86
2021/12/01 05:46:03;;;;;;;6.63;6.00;;;;;;;13.20;70.93;99770.09;4846741;29;102763;-87
2021/12/01 05:48:31;;;;;;;7.18;6.47;;;;;;;13.20;70.81;99775.56;4849738;29;101990;-87
2021/12/01 05:50:59;;;;;;;6.97;6.28;;;;;;;13.21;70.96;99777.16;4848633;29;102000;-88
2021/12/01 05:53:26;;;;;;;6.75;6.05;;;;;;;13.21;71.04;99776.38;4850050;29;102088;-88
2021/12/01 05:55:53;;;;;;;6.40;5.80;;;;;;;13.21;70.99;99782.63;4849113;29;102411;-88
2021/12/01 05:58:19;;;;;;;6.78;6.10;;;;;;;13.21;70.97;99782.63;4840810;29;101827;-88
2021/12/01 06:00:46;;;;;;;6.63;6.03;;;;;;;13.21;70.80;99777.16;4848709;29;101775;-88
2021/12/01 06:03:12;;;;;;;6.75;6.15;;;;;;;13.21;70.69;99785.38;4850230;29;102065;-88
2021/12/01 06:05:40;;;;;;;7.03;6.32;;;;;;;13.21;70.87;99788.09;4848566;29;102738;-89
2021/12/01 06:08:07;;;;;;;6.32;5.72;;;;;;;13.21;71.08;99782.63;4849306;29;102001;-88
2021/12/01 06:10:34;;;;;;;7.07;6.38;;;;;;;13.21;70.95;99777.16;4848499;29;101639;-88
2021/12/01 06:13:01;;;;;;;7.05;6.35;;;;;;;13.21;70.93;99777.16;4849882;29;102161;-88
2021/12/01 06:15:31;;;;;;;6.90;6.20;;;;;;;13.21;70.74;99779.91;4832037;29;102424;-88
2021/12/01 06:17:58;;;;;;;6.80;6.20;;;;;;;13.21;70.78;99771.72;4849063;29;101772;-88
2021/12/01 06:20:25;;;;;;;7.18;6.47;;;;;;;13.21;70.84;99771.72;4848519;29;101963;-88
2021/12/01 06:22:53;;;;;;;7.22;6.53;;;;;;;13.21;71.09;99773.63;4849386;29;102045;-88
2021/12/01 06:25:19;;;;;;;7.57;6.78;;;;;;;13.21;71.07;99777.16;4848181;29;102662;-89
2021/12/01 06:27:46;;;;;;;7.32;6.50;;;;;;;13.21;70.83;99777.16;4848778;29;101535;-88
2021/12/01 06:30:12;;;;;;;7.10;6.43;;;;;;;13.21;70.88;99777.16;4848100;29;101783;-88
2021/12/01 06:32:39;;;;;;;7.35;6.63;;;;;;;13.21;70.92;99766.25;4833126;29;102101;-88
2021/12/01 06:35:06;;;;;;;9.20;6.70;;;;;;;13.22;70.90;99770.59;4848131;29;102729;-88
2021/12/01 06:37:32;;;;;;;7.00;6.30;;;;;;;13.22;70.76;99767.03;4849004;29;101846;-88
2021/12/01 06:40:00;;;;;;;7.90;7.20;;;;;;;13.21;70.86;99771.72;4848871;29;102022;-88
2021/12/01 06:42:27;;;;;;;7.82;7.03;;;;;;;13.21;70.96;99785.38;4848307;29;102056;-88
2021/12/01 06:44:54;;;;;;;7.05;6.35;;;;;;;13.21;71.23;99777.16;4847724;29;102713;-89
2021/12/01 06:47:20;;;;;;;7.65;6.93;;;;;;;13.21;70.93;99785.38;4848768;29;101749;-88
2021/12/01 06:49:47;;;;;;;7.18;6.47;;;;;;;13.21;70.80;99799.03;4831438;29;101782;-88
2021/12/01 06:52:14;;;;;;;7.22;6.53;;;;;;;13.21;70.95;99796.28;4832650;29;102100;-88
2021/12/01 06:54:40;;;;;;;7.70;6.90;;;;;;;13.22;70.84;99788.91;4847612;29;102803;-88
2021/12/01 06:57:08;;;;;;;7.30;6.60;;;;;;;13.21;71.02;99798.22;4848727;29;103493;-88
2021/12/01 06:59:34;;;;;;;7.55;6.80;;;;;;;13.21;70.68;99792.75;4848060;29;101665;-88
2021/12/01 07:02:01;;;;;;;7.53;6.80;;;;;;;13.21;70.74;99799.03;4848371;29;102050;-88
2021/12/01 07:04:29;;;;;;;7.25;6.47;;;;;;;13.20;70.86;99791.97;4847819;29;102695;-88
2021/12/01 07:06:56;;;;;;;7.40;6.70;;;;;;;13.20;70.74;99794.69;4848244;29;102048;-88
2021/12/01 07:09:24;;;;;;;7.57;6.95;;;;;;;13.21;70.79;99800.97;4845130;29;101952;-91
2021/12/01 07:11:51;;;;;;;8.03;7.23;;;;;;;13.20;70.79;99800.16;4850755;29;102218;-90
2021/12/01 07:14:19;;;;;;;7.18;6.47;;;;;;;13.21;70.81;99803.69;4839149;29;102801;-91
2021/12/01 07:16:46;;;;;;;7.30;6.60;;;;;;;13.21;70.91;99817.34;4837382;29;101985;-90
2021/12/01 07:19:13;;;;;;;7.45;6.75;;;;;;;13.20;70.67;99819.28;4847144;29;102140;-90
2021/12/01 07:21:39;;;;;;;7.20;6.50;;;;;;;13.20;70.78;99805.63;4843740;29;102403;-91
2021/12/01 07:24:06;;;;;;;6.72;6.10;;;;;;;13.21;70.88;99807.22;4840923;29;102769;-90
2021/12/01 07:26:33;;;;;;;6.72;6.13;;;;;;;13.21;70.81;99799.03;4863893;29;101940;-91
2021/12/01 07:29:00;;;;;;;7.15;6.45;;;;;;;13.21;70.79;99809.97;4865692;29;102046;-91
2021/12/01 07:31:28;;;;;;;7.00;6.30;;;;;;;13.21;70.89;99807.22;4866139;29;102108;-90
2021/12/01 07:33:54;;;;;;;6.85;6.15;;;;;;;13.21;70.89;99815.41;4829177;29;102771;-90
2021/12/01 07:36:21;;;;;;;7.13;6.43;;;;;;;13.21;70.68;99807.22;4847810;29;102035;-90
2021/12/01 07:38:50;;;;;;;6.97;6.28;;;;;;;13.22;70.90;99805.28;4846810;29;102164;-90
2021/12/01 07:41:16;;;;;;;7.65;6.95;;;;;;;13.22;70.69;99816.22;4830548;29;102077;-91
2021/12/01 07:43:43;;;;;;;7.18;6.53;;;;;;;13.20;70.90;99813.81;4849376;29;102767;-90
2021/12/01 07:46:10;;;;;;;6.60;5.95;;;;;;;13.19;70.81;99812.19;4848613;29;102171;-91
2021/12/01 07:48:38;;;;;;;7.63;6.88;;;;;;;13.21;70.65;99820.88;4849279;29;102251;-91
2021/12/01 07:51:05;;;;;;;7.03;6.32;;;;;;;13.21;70.72;99820.88;4848259;29;102053;-91
2021/12/01 07:53:33;;;;;;;7.97;7.07;;;;;;;13.22;70.71;99833.41;4856072;29;102755;-91
2021/12/01 07:56:02;;;;;;;7.88;6.15;;;;;;;13.22;70.82;99833.41;4834885;29;102203;-90
2021/12/01 07:58:29;;;;;;;7.53;6.82;;;;;;;13.21;70.73;99837.28;4840550;29;101713;-89
2021/12/01 08:00:55;;;;;;;7.20;6.50;;;;;;;13.21;70.78;99837.28;4854932;29;102089;-91
2021/12/01 08:03:22;;;;;;;7.35;6.65;;;;;;;13.20;70.92;99841.13;4861073;29;102811;-91
2021/12/01 08:05:50;;;;;;;7.45;6.75;;;;;;;13.21;70.58;99840.00;4854678;29;101848;-91
2021/12/01 08:08:16;;;;;;;7.18;6.47;;;;;;;13.21;71.23;99842.75;4853047;29;101942;-90
2021/12/01 08:10:45;;;;;;;7.75;6.95;;;;;;;13.21;70.84;99842.75;4851824;29;102129;-91
2021/12/01 08:13:11;;;;;;;7.53;6.82;;;;;;;13.21;70.83;99842.75;4855882;29;102837;-90
2021/12/01 08:15:38;;;;;;;6.75;6.15;;;;;;;13.20;70.94;99846.59;4849847;29;102036;-90
2021/12/01 08:18:04;;;;;;;7.78;7.07;;;;;;;13.21;71.00;99847.41;4853294;29;102083;-91
2021/12/01 08:20:33;;;;;;;7.25;6.65;;;;;;;13.20;70.76;99846.59;4866527;29;102067;-91
2021/12/01 08:23:01;;;;;;;7.40;6.70;;;;;;;13.21;70.92;99853.69;4865362;29;102824;-90
2021/12/01 08:25:27;;;;;;;7.22;6.63;;;;;;;13.21;70.87;99845.47;4866138;29;101819;-90
2021/12/01 08:27:54;;;;;;;7.18;6.47;;;;;;;13.21;70.92;99847.41;4865418;29;101925;-90
2021/12/01 08:30:20;;;;;;;6.72;6.13;;;;;;;13.21;70.84;99853.69;4846200;29;102056;-90
2021/12/01 08:32:48;;;;;;;6.93;6.22;;;;;;;13.21;70.83;99855.59;4847011;29;102772;-90
2021/12/01 08:35:15;;;;;;;6.97;6.38;;;;;;;13.21;70.97;99853.69;4848023;29;102009;-90
2021/12/01 08:37:42;;;;;;;7.18;6.47;;;;;;;13.22;70.71;99857.22;4850452;29;102330;-90
2021/12/01 08:40:14;;;;;;;6.95;6.25;;;;;;;13.21;70.84;99858.34;4838698;29;102247;-91
2021/12/01 08:42:41;;;;;;;6.78;6.13;;;;;;;13.22;70.63;99859.94;4835169;29;102689;-92
2021/12/01 08:45:08;;;;;;;7.68;6.95;;;;;;;13.21;70.90;99859.13;4839142;29;101977;-92
2021/12/01 08:47:35;;;;;;;6.82;6.18;;;;;;;13.20;71.11;99857.53;4831927;29;102080;-93
2021/12/01 08:50:02;;;;;;;6.88;6.20;;;;;;;13.21;70.74;99864.59;4841914;29;102178;-93
2021/12/01 08:52:29;;;;;;;6.78;6.18;;;;;;;13.21;70.73;99859.13;4852322;29;102757;-93
2021/12/01 08:54:55;;;;;;;7.15;6.38;;;;;;;13.22;71.05;99865.41;4850653;29;102108;-92
2021/12/01 08:57:23;;;;;;;6.72;6.13;;;;;;;13.22;70.89;99857.22;4832193;29;103448;-93
2021/12/01 08:59:50;;;;;;;7.13;6.43;;;;;;;13.21;70.84;99859.13;4841522;29;102054;-92
2021/12/01 09:02:17;;;;;;;6.68;6.03;;;;;;;13.21;70.73;99867.34;4845930;29;102795;-92
2021/12/01 09:04:49;;;;;;;6.68;6.07;;;;;;;13.21;70.80;99859.13;4851871;29;102094;-92
2021/12/01 09:07:16;;;;;;;6.45;5.85;;;;;;;13.22;70.65;99866.22;4834149;29;102155;-92
2021/12/01 09:09:43;;;;;;;7.03;6.05;;;;;;;13.22;70.88;99879.88;4837680;29;102422;-92
2021/12/01 09:12:10;;;;;;;6.70;6.10;;;;;;;13.22;70.87;99881.78;4842591;29;102746;-92
2021/12/01 09:14:38;;;;;;;6.32;5.70;;;;;;;13.22;70.76;99879.88;4829272;29;102129;-92
2021/12/01 09:17:05;;;;;;;6.77;6.00;;;;;;;13.21;70.78;99875.53;4828830;29;102232;-92
2021/12/01 09:19:31;;;;;;;6.90;6.20;;;;;;;13.21;70.88;99875.53;4835953;29;102324;-92
2021/12/01 09:21:58;;;;;;;6.63;6.03;;;;;;;13.22;70.81;99871.69;4842871;29;102847;-92
2021/12/01 09:24:25;;;;;;;6.10;5.57;;;;;;;13.22;70.70;99877.13;4836827;29;101955;-93
2021/12/01 09:26:51;;;;;;;6.25;5.70;;;;;;;13.22;70.94;99877.13;4835553;29;102156;-92
2021/12/01 09:29:18;;;;;;;5.97;5.47;;;;;;;13.22;70.73;99871.69;4835146;29;102105;-93
2021/12/01 09:31:46;;;;;;;7.00;6.30;;;;;;;13.24;70.75;99870.59;4847154;29;102711;-92
2021/12/01 09:34:13;;;;;;;6.70;6.10;;;;;;;13.21;70.77;99872.81;4841013;29;102265;-93
2021/12/01 09:36:40;;;;;;;7.07;6.38;;;;;;;13.22;70.89;99879.88;4835969;29;102078;-92
2021/12/01 09:39:06;;;;;;;6.47;5.80;;;;;;;13.22;70.82;99868.94;4838399;29;102057;-93
2021/12/01 09:41:33;;;;;;;6.45;5.85;;;;;;;13.24;70.96;99870.59;4833578;29;102450;-92
2021/12/01 09:43:59;;;;;;;5.53;5.03;;;;;;;13.24;70.78;99873.34;4854610;29;102247;-93
2021/12/01 09:46:30;;;;;;;5.63;5.13;;;;;;;13.26;70.96;99865.63;4852854;29;102137;-93
2021/12/01 09:48:58;;;;;;;6.47;5.72;;;;;;;13.25;70.60;99875.75;4840374;29;102148;-93
2021/12/01 09:51:25;;;;;;;6.97;5.97;;;;;;;13.26;71.06;99877.34;4839427;29;102749;-94
2021/12/01 09:53:54;;;;;;;6.03;5.43;;;;;;;13.28;70.85;99874.34;4839708;29;102068;-93
2021/12/01 09:56:21;;;;;;;6.00;5.40;;;;;;;13.29;70.91;99881.41;4848333;29;102269;-93
2021/12/01 09:58:48;;;;;;;6.60;5.85;;;;;;;13.28;71.00;99890.72;4860896;29;102048;-93
2021/12/01 10:01:18;;;;;;;6.20;5.60;;;;;;;13.28;71.17;99877.06;4848188;29;102793;-93
2021/12/01 10:03:45;;;;;;;6.70;6.00;;;;;;;13.28;71.24;99885.25;4845482;29;102080;-93
2021/12/01 10:06:17;;;;;;;6.40;5.80;;;;;;;13.28;71.16;99894.25;4841908;29;101840;-94
2021/12/01 10:08:47;;;;;;;6.30;5.70;;;;;;;13.28;71.12;99885.25;4850119;29;101883;-93
2021/12/01 10:11:29;;;;;;;6.20;5.38;;;;;;;13.28;71.10;99885.25;4846295;29;105254;-92
2021/12/01 10:13:57;;;;;;;6.05;5.40;;;;;;;13.28;71.42;99890.72;4837823;29;102149;-92
2021/12/01 10:16:27;;;;;;;6.00;5.40;;;;;;;13.28;71.08;99888.81;4850300;29;102117;-92
2021/12/01 10:18:56;;;;;;;5.55;5.05;;;;;;;13.28;71.20;99893.47;4844874;29;102291;-92
2021/12/01 10:21:31;;;;;;;5.43;4.93;;;;;;;13.28;71.14;99886.06;4835350;29;102491;-93
2021/12/01 10:24:00;;;;;;;5.80;5.20;;;;;;;13.29;71.11;99890.41;4840850;29;102049;-92
2021/12/01 10:26:29;;;;;;;5.30;4.78;;;;;;;13.27;71.13;99895.38;4847437;29;101929;-93
2021/12/01 10:28:57;;;;;;;5.20;4.70;;;;;;;13.28;71.13;99902.47;4843101;29;102024;-93
2021/12/01 10:31:37;;;;;;;5.70;5.20;;;;;;;13.28;71.20;99901.66;4846656;29;102385;-92
2021/12/01 10:34:19;;;;;;;5.55;5.03;;;;;;;13.29;71.22;99908.72;4825317;29;102069;-93
2021/12/01 10:36:48;;;;;;;5.25;4.75;;;;;;;13.28;71.22;99913.41;4838026;29;102050;-93
2021/12/01 10:39:15;;;;;;;5.70;5.03;;;;;;;13.28;71.23;99907.13;4844923;29;102278;-92
2021/12/01 10:41:43;;;;;;;5.85;5.25;;;;;;;13.28;71.07;99902.47;4841544;29;102718;-92
2021/12/01 10:44:12;;;;;;;5.38;4.88;;;;;;;13.28;70.99;99901.66;4835416;29;102065;-92
2021/12/01 10:46:46;;;;;;;5.13;4.53;;;;;;;13.28;70.87;99912.59;4837010;29;101993;-92
2021/12/01 10:49:14;;;;;;;5.13;4.47;;;;;;;13.28;71.13;99907.13;4845159;29;102208;-93
2021/12/01 10:51:43;;;;;;;5.55;4.90;;;;;;;13.28;71.20;99907.13;4835504;29;101799;-92
2021/12/01 10:54:19;;;;;;;4.85;4.20;;;;;;;13.28;70.93;99915.31;4842218;29;102009;-93
2021/12/01 10:56:46;;;;;;;6.47;4.85;;;;;;;13.28;71.24;99912.59;4836692;29;101948;-93
2021/12/01 10:59:15;;;;;;;4.88;4.45;;;;;;;13.28;71.14;99915.31;4844200;29;102084;-93
2021/12/01 11:01:42;;;;;;;4.80;4.40;;;;;;;13.28;71.21;99923.53;4838821;29;102853;-93
2021/12/01 11:04:08;;;;;;;4.70;4.30;;;;;;;13.28;71.06;99916.13;4846120;29;102037;-92
2021/12/01 11:06:40;;;;;;;4.68;4.28;;;;;;;13.28;71.10;99912.59;4850520;29;102079;-92
2021/12/01 11:09:07;;;;;;;5.10;4.60;;;;;;;13.28;71.10;99916.13;4858798;29;102033;-92
2021/12/01 11:11:38;;;;;;;6.47;4.65;;;;;;;13.28;70.96;99918.06;4840824;29;102696;-88
2021/12/01 11:14:13;;;;;;;5.00;4.60;;;;;;;13.27;71.06;99910.94;4838251;29;101972;-93
2021/12/01 11:16:41;;;;;;;5.53;5.03;;;;;;;13.27;71.25;99905.50;4851321;29;101498;-87
2021/12/01 11:19:08;;;;;;;4.47;4.13;;;;;;;13.27;70.74;99910.94;4867862;29;102011;-88
2021/12/01 11:21:37;;;;;;;5.70;5.13;;;;;;;13.27;70.81;99924.63;4866264;29;102779;-88
2021/12/01 11:24:06;;;;;;;5.38;4.88;;;;;;;13.27;70.88;99921.88;4867203;29;102074;-88
2021/12/01 11:26:33;;;;;;;;;;;;;;;13.27;70.99;99932.81;4866790;29;102000;-88
2021/12/01 11:29:04;;;;;;;4.85;4.38;;;;;;;13.26;71.33;99934.75;4868038;29;102064;-88
2021/12/01 11:31:33;;;;;;;4.82;4.00;;;;;;;13.27;70.87;99943.75;4863484;29;102715;-88
2021/12/01 11:34:03;;;;;;;5.47;4.43;;;;;;;13.27;71.07;99943.75;4866720;29;101758;-88